createdAt,value
2017-11-13T01:44:58.080Z,0.00
2017-11-13T01:44:58.739Z,0.00
2017-11-13T01:44:59.255Z,0.00
2017-11-13T01:51:45.332Z,0.00
2017-11-13T01:51:45.834Z,0.00
2017-11-13T01:51:46.432Z,0.00
2017-11-13T01:53:01.002Z,0.00
2017-11-13T01:53:01.577Z,0.00
2017-11-13T01:53:02.175Z,0.00
2017-11-13T01:53:02.774Z,0.00
2017-11-13T01:53:03.375Z,0.00
2017-11-13T01:53:03.975Z,0.00
2017-11-13T01:53:04.576Z,0.00
2017-11-13T01:53:58.564Z,0.00
2017-11-13T01:53:59.133Z,0.00
2017-11-13T01:53:59.724Z,0.00
2017-11-13T01:54:00.324Z,0.00
2017-11-13T01:54:00.926Z,0.00
2017-11-13T01:54:01.524Z,0.00
2017-11-13T01:54:02.125Z,0.00
2017-11-13T01:55:23.137Z,0.00
2017-11-13T01:55:23.715Z,0.00
2017-11-13T01:55:24.307Z,0.00
2017-11-13T01:55:24.909Z,0.00
2017-11-13T01:55:25.506Z,0.00
2017-11-13T01:55:26.107Z,0.00
2017-11-13T01:55:26.717Z,0.00
2017-11-13T01:55:27.309Z,0.00
2017-11-13T01:55:27.926Z,0.00
2017-11-13T01:55:28.521Z,0.00
2017-11-13T01:55:29.106Z,0.00
2017-11-13T01:55:29.706Z,0.00
2017-11-13T01:56:29.185Z,0.00
2017-11-13T01:56:29.757Z,0.00
2017-11-13T01:56:30.355Z,0.00
2017-11-13T01:56:30.958Z,0.00
2017-11-13T01:56:31.583Z,0.00
2017-11-13T01:56:32.164Z,0.00
2017-11-13T01:56:32.754Z,0.00
2017-11-13T01:56:33.357Z,0.00
2017-11-13T01:56:33.953Z,0.00
2017-11-13T01:56:34.553Z,0.00
2017-11-13T01:56:35.153Z,0.00
2017-11-13T01:56:35.752Z,0.00
2017-11-13T01:56:36.354Z,0.00
2017-11-13T01:56:36.956Z,0.00
2017-11-13T01:56:37.556Z,0.00
2017-11-13T01:56:38.153Z,0.00
2017-11-13T01:56:38.754Z,0.00
2017-11-13T02:10:08.297Z,0.00
2017-11-13T02:10:08.800Z,0.00
2017-11-13T02:10:09.397Z,0.00
2017-11-13T02:10:09.998Z,0.00
2017-11-13T02:10:10.598Z,0.00
2017-11-13T02:10:11.198Z,0.00
2017-11-13T02:10:11.799Z,0.00
2017-11-13T02:10:12.397Z,0.00
2017-11-13T02:11:42.089Z,0.00
2017-11-13T02:11:42.660Z,0.00
2017-11-13T02:11:43.259Z,0.00
2017-11-13T02:11:43.862Z,0.00
2017-11-13T02:11:44.460Z,0.00
2017-11-13T02:11:45.062Z,0.00
2017-11-13T02:11:45.658Z,0.00
2017-11-13T02:11:46.256Z,0.00
2017-11-13T02:11:46.860Z,0.00
2017-11-13T02:11:47.458Z,0.00
2017-11-13T02:11:48.057Z,0.00
2017-11-13T02:11:48.656Z,0.00
2017-11-13T02:11:49.266Z,0.00
2017-11-13T02:11:49.857Z,0.00
2017-11-13T02:11:50.479Z,0.00
2017-11-13T02:11:51.058Z,0.00
2017-11-13T02:12:45.070Z,0.00
2017-11-13T02:12:45.667Z,0.00
2017-11-13T02:12:46.236Z,0.00
2017-11-13T02:12:46.841Z,0.00
2017-11-13T02:12:47.436Z,0.00
2017-11-13T02:12:48.039Z,0.00
2017-11-13T02:12:48.635Z,0.00
2017-11-13T02:13:54.191Z,0.00
2017-11-13T02:13:54.758Z,0.00
2017-11-13T02:13:55.421Z,0.00
2017-11-13T02:13:56.665Z,0.00
2017-11-13T02:15:07.230Z,0.00
2017-11-13T02:15:07.770Z,0.00
2017-11-13T02:15:08.368Z,0.00
2017-11-13T02:15:08.969Z,0.00
2017-11-13T02:15:09.579Z,0.00
2017-11-13T02:15:10.213Z,0.00
2017-11-13T02:15:10.825Z,0.00
2017-11-13T02:15:11.365Z,0.00
2017-11-13T02:15:11.965Z,0.00
2017-11-13T02:15:12.565Z,0.00
2017-11-13T02:15:13.165Z,0.00
2017-11-13T02:15:13.773Z,0.00
2017-11-13T02:15:14.366Z,0.00
2017-11-13T02:15:14.964Z,0.00
2017-11-13T02:17:27.282Z,0.00
2017-11-13T02:17:27.859Z,0.00
2017-11-13T02:17:28.462Z,0.00
2017-11-13T02:17:29.054Z,0.00
2017-11-13T02:17:29.652Z,0.00
2017-11-13T02:17:30.253Z,0.00
2017-11-13T02:17:30.852Z,0.00
2017-11-13T02:17:31.452Z,0.00
2017-11-13T02:17:32.052Z,0.00
2017-11-13T02:17:32.651Z,0.00
2017-11-13T02:17:33.251Z,0.00
2017-11-13T02:17:33.852Z,0.00
2017-11-13T02:53:40.223Z,0.00
2017-11-13T02:53:40.802Z,0.00
2017-11-13T02:53:41.399Z,0.00
2017-11-13T02:53:41.997Z,0.00
2017-11-13T02:53:42.611Z,0.00
2017-11-13T02:53:43.195Z,0.00
2017-11-13T02:53:43.797Z,0.00
2017-11-13T02:57:12.591Z,0.00
2017-11-13T02:57:13.091Z,0.00
2017-11-13T02:57:13.691Z,0.00
2017-11-13T02:57:14.290Z,0.00
2017-11-13T02:57:14.890Z,0.00
2017-11-13T02:57:15.491Z,0.00
2017-11-13T02:57:16.086Z,0.00
2017-11-13T03:00:49.613Z,0.00
2017-11-13T03:00:50.114Z,0.00
2017-11-13T03:00:50.713Z,0.00
2017-11-13T03:00:51.313Z,0.00
2017-11-13T03:00:51.913Z,0.00
2017-11-13T03:00:52.512Z,0.00
2017-11-13T03:00:53.114Z,0.00
2017-11-13T03:00:53.712Z,0.00
2017-11-13T03:00:54.311Z,0.00
2017-11-13T03:00:54.918Z,0.00
2017-11-13T03:00:55.516Z,0.00
2017-11-13T03:00:56.112Z,0.00
2017-11-13T03:01:55.124Z,0.00
2017-11-13T03:01:55.700Z,0.00
2017-11-13T03:01:56.300Z,0.00
2017-11-13T03:01:56.900Z,0.00
2017-11-13T03:01:57.500Z,0.00
2017-11-13T03:01:58.110Z,0.00
2017-11-13T03:01:58.698Z,0.00
2017-11-13T03:01:59.297Z,0.00
2017-11-13T03:01:59.906Z,0.00
2017-11-13T03:02:00.497Z,0.00
2017-11-13T03:02:01.102Z,0.00
2017-11-13T03:02:01.703Z,0.00
2017-11-13T03:02:02.296Z,0.00
2017-11-13T03:02:02.896Z,0.00
2017-11-13T03:02:03.495Z,0.00
2017-11-13T03:02:04.098Z,0.00
2017-11-13T03:02:04.696Z,0.00
2017-11-13T03:07:53.896Z,0.00
2017-11-13T03:07:54.469Z,0.00
2017-11-13T03:07:55.068Z,0.00
2017-11-13T03:07:55.666Z,0.00
2017-11-13T03:07:56.266Z,0.00
2017-11-13T03:07:56.881Z,0.00
2017-11-13T03:07:57.467Z,0.00
2017-11-13T03:07:58.066Z,0.00
2017-11-13T03:07:58.666Z,0.00
2017-11-13T03:07:59.265Z,0.00
2017-11-13T03:07:59.864Z,0.00
2017-11-13T03:08:00.468Z,0.00
2017-11-13T03:10:13.325Z,0.00
2017-11-13T03:10:13.904Z,0.00
2017-11-13T03:10:14.497Z,0.00
2017-11-13T03:10:15.099Z,0.00
2017-11-13T03:10:15.692Z,0.00
2017-11-13T03:10:16.291Z,0.00
2017-11-13T03:10:16.892Z,0.00
2017-11-13T03:10:17.492Z,0.00
2017-11-13T03:10:18.091Z,0.00
2017-11-13T03:10:18.693Z,0.00
2017-11-13T03:10:19.293Z,0.00
2017-11-13T03:10:19.892Z,0.00
2017-11-13T03:11:15.463Z,0.00
2017-11-13T03:11:16.041Z,0.00
2017-11-13T03:11:16.638Z,0.00
2017-11-13T03:11:17.236Z,0.00
2017-11-13T03:11:17.836Z,0.00
2017-11-13T03:11:18.435Z,0.00
2017-11-13T03:12:32.988Z,0.00
2017-11-13T03:12:33.554Z,0.00
2017-11-13T03:12:34.153Z,0.00
2017-11-13T03:12:34.753Z,0.00
2017-11-13T03:12:35.354Z,0.00
2017-11-13T03:12:35.956Z,0.00
2017-11-13T03:12:36.553Z,0.00
2017-11-13T03:13:30.022Z,0.00
2017-11-13T03:13:30.593Z,0.00
2017-11-13T03:13:31.192Z,0.00
2017-11-13T03:13:31.792Z,0.00
2017-11-13T03:13:32.392Z,0.00
2017-11-13T03:13:32.991Z,0.00
2017-11-13T03:13:33.592Z,0.00
2017-11-13T03:13:34.201Z,0.00
2017-11-13T03:14:29.208Z,0.00
2017-11-13T03:14:29.785Z,0.00
2017-11-13T03:14:30.379Z,0.00
2017-11-13T03:14:30.979Z,0.00
2017-11-13T03:14:31.577Z,0.00
2017-11-13T03:14:32.178Z,0.00
2017-11-13T03:17:21.005Z,0.00
2017-11-13T04:10:43.529Z,0.00
2017-11-13T04:10:44.098Z,0.00
2017-11-13T04:10:45.294Z,0.00
2017-11-13T04:10:45.669Z,0.00
2017-11-13T04:10:45.894Z,0.00
2017-11-13T04:10:46.495Z,0.00
2017-11-13T04:10:47.093Z,0.00
2017-11-13T04:10:47.694Z,0.00
2017-11-13T04:10:48.293Z,0.00
2017-11-13T04:10:48.893Z,0.00
2017-11-13T04:10:49.498Z,0.00
2017-11-13T04:10:50.092Z,0.00
2017-11-13T04:13:02.952Z,0.00
2017-11-13T04:13:03.518Z,0.00
2017-11-13T04:13:04.116Z,0.00
2017-11-13T04:13:04.715Z,0.00
2017-11-13T04:13:05.317Z,0.00
2017-11-13T04:13:05.914Z,0.00
2017-11-13T04:13:06.519Z,0.00
2017-11-13T04:13:07.115Z,0.00
2017-11-13T04:13:07.719Z,0.00
2017-11-13T04:13:08.315Z,0.00
2017-11-13T04:13:08.913Z,0.00
2017-11-13T04:13:09.514Z,0.00
2017-11-13T04:15:31.829Z,0.00
2017-11-13T04:15:32.399Z,0.00
2017-11-13T04:15:32.996Z,0.00
2017-11-13T04:15:33.596Z,0.00
2017-11-13T04:15:34.196Z,0.00
2017-11-13T04:15:34.797Z,0.00
2017-11-13T04:15:35.395Z,0.00
2017-11-13T04:15:35.997Z,0.00
2017-11-13T04:15:36.597Z,0.00
2017-11-13T04:15:37.195Z,0.00
2017-11-13T04:15:37.793Z,0.00
2017-11-13T04:15:38.400Z,0.00
2017-11-13T04:17:58.074Z,0.00
2017-11-13T04:17:58.575Z,0.00
2017-11-13T04:17:59.175Z,0.00
2017-11-13T04:17:59.773Z,0.00
2017-11-13T04:18:00.378Z,0.00
2017-11-13T04:18:00.973Z,0.00
2017-11-13T04:18:01.578Z,0.00
2017-11-13T04:20:23.889Z,0.00
2017-11-13T04:20:24.459Z,0.00
2017-11-13T04:20:25.059Z,0.00
2017-11-13T04:20:25.660Z,0.00
2017-11-13T04:20:26.260Z,0.00
2017-11-13T04:20:26.861Z,0.00
2017-11-13T04:20:27.460Z,0.00
2017-11-13T04:20:28.062Z,0.00
2017-11-13T04:20:28.657Z,0.00
2017-11-13T04:20:29.259Z,0.00
2017-11-13T04:21:24.239Z,0.00
2017-11-13T04:21:24.813Z,0.00
2017-11-13T04:21:25.410Z,0.00
2017-11-13T04:21:26.012Z,0.00
2017-11-13T04:21:26.610Z,0.00
2017-11-13T04:21:27.210Z,0.00
2017-11-13T04:23:09.205Z,0.00
2017-11-13T04:23:09.771Z,0.00
2017-11-13T04:23:10.372Z,0.00
2017-11-13T04:23:11.000Z,0.00
2017-11-13T04:23:11.573Z,0.00
2017-11-13T04:23:12.176Z,0.00
2017-11-13T04:23:12.769Z,0.00
2017-11-13T04:23:13.370Z,0.00
2017-11-13T04:23:13.969Z,0.00
2017-11-13T04:23:14.569Z,0.00
2017-11-13T04:23:15.172Z,0.00
2017-11-13T04:23:15.778Z,0.00
2017-11-13T04:26:08.597Z,0.00
2017-11-13T04:26:09.169Z,0.00
2017-11-13T04:26:09.767Z,0.00
2017-11-13T04:26:10.368Z,0.00
2017-11-13T04:26:10.967Z,0.00
2017-11-13T04:26:11.568Z,0.00
2017-11-13T04:26:12.167Z,0.00
2017-11-13T04:26:12.768Z,0.00
2017-11-13T04:26:13.369Z,0.00
2017-11-13T04:26:13.967Z,0.00
2017-11-13T04:26:14.566Z,0.00
2017-11-13T04:26:15.168Z,0.00
2017-11-13T04:27:10.250Z,0.00
2017-11-13T04:27:10.824Z,0.00
2017-11-13T04:27:11.424Z,0.00
2017-11-13T04:27:12.022Z,0.00
2017-11-13T04:27:12.623Z,0.00
2017-11-13T04:27:13.226Z,0.00
2017-11-13T04:27:13.821Z,0.00
2017-11-13T04:27:14.421Z,0.00
2017-11-13T04:28:08.925Z,0.00
2017-11-13T04:28:09.499Z,0.00
2017-11-13T04:28:10.099Z,0.00
2017-11-13T04:28:10.698Z,0.00
2017-11-13T04:28:11.298Z,0.00
2017-11-13T04:28:11.898Z,0.00
2017-11-13T04:28:12.497Z,0.00
2017-11-13T04:28:13.100Z,0.00
2017-11-13T04:29:08.117Z,0.00
2017-11-13T04:29:08.688Z,0.00
2017-11-13T04:29:09.286Z,0.00
2017-11-13T04:29:09.885Z,0.00
2017-11-13T04:29:10.485Z,0.00
2017-11-13T04:29:11.095Z,0.00
2017-11-13T04:29:11.685Z,0.00
2017-11-13T04:30:05.150Z,0.00
2017-11-13T04:30:05.724Z,0.00
2017-11-13T04:30:06.325Z,0.00
2017-11-13T04:30:06.924Z,0.00
2017-11-13T04:30:07.539Z,0.00
2017-11-13T04:30:08.125Z,0.00
2017-11-13T04:30:08.724Z,0.00
2017-11-13T04:30:09.325Z,0.00
2017-11-13T04:31:03.825Z,0.00
2017-11-13T04:31:04.400Z,0.00
2017-11-13T04:31:05.007Z,0.00
2017-11-13T04:31:05.599Z,0.00
2017-11-13T04:31:06.200Z,0.00
2017-11-13T04:31:06.798Z,0.00
2017-11-13T04:31:07.397Z,0.00
2017-11-13T04:31:07.999Z,0.00
2017-11-13T04:33:20.310Z,0.00
2017-11-13T04:33:20.881Z,0.00
2017-11-13T04:33:21.483Z,0.00
2017-11-13T04:33:22.080Z,0.00
2017-11-13T04:33:22.679Z,0.00
2017-11-13T04:33:23.279Z,0.00
2017-11-13T04:33:23.880Z,0.00
2017-11-13T04:33:24.480Z,0.00
2017-11-13T04:33:25.079Z,0.00
2017-11-13T04:33:25.680Z,0.00
2017-11-13T04:33:26.280Z,0.00
2017-11-13T04:33:26.878Z,0.00
2017-11-13T04:34:21.972Z,0.00
2017-11-13T04:34:22.545Z,0.00
2017-11-13T04:34:23.144Z,0.00
2017-11-13T04:34:23.743Z,0.00
2017-11-13T04:34:24.343Z,0.00
2017-11-13T04:34:24.944Z,0.00
2017-11-13T04:34:25.544Z,0.00
2017-11-13T04:34:26.145Z,0.00
2017-11-13T04:36:56.290Z,0.00
2017-11-13T04:36:56.791Z,0.00
2017-11-13T04:36:57.391Z,0.00
2017-11-13T04:38:35.423Z,0.00
2017-11-13T04:38:35.988Z,0.00
2017-11-13T04:38:36.587Z,0.00
2017-11-13T04:38:37.186Z,0.00
2017-11-13T04:38:37.785Z,0.00
2017-11-13T04:38:38.384Z,0.00
2017-11-13T04:38:38.986Z,0.00
2017-11-13T04:38:39.586Z,0.00
2017-11-13T04:38:40.185Z,0.00
2017-11-13T04:38:40.784Z,0.00
2017-11-13T04:38:41.387Z,0.00
2017-11-13T04:38:41.985Z,0.00
2017-11-13T04:38:42.585Z,0.00
2017-11-13T04:38:43.184Z,0.00
2017-11-13T04:38:43.784Z,0.00
2017-11-13T04:38:44.383Z,0.00
2017-11-13T04:38:44.983Z,0.00
2017-11-13T04:40:57.297Z,0.00
2017-11-13T04:40:57.865Z,0.00
2017-11-13T04:40:58.468Z,0.00
2017-11-13T04:40:59.065Z,0.00
2017-11-13T04:40:59.669Z,0.00
2017-11-13T04:41:00.264Z,0.00
2017-11-13T04:41:00.864Z,0.00
2017-11-13T04:41:01.464Z,0.00
2017-11-13T04:41:02.065Z,0.00
2017-11-13T04:41:02.666Z,0.00
2017-11-13T04:41:03.263Z,0.00
2017-11-13T04:41:03.864Z,0.00
2017-11-13T04:42:02.878Z,0.00
2017-11-13T04:42:03.455Z,0.00
2017-11-13T04:42:04.052Z,0.00
2017-11-13T04:42:04.652Z,0.00
2017-11-13T04:42:05.250Z,0.00
2017-11-13T04:42:05.850Z,0.00
2017-11-13T04:42:06.449Z,0.00
2017-11-13T04:42:07.050Z,0.00
2017-11-13T04:42:07.649Z,0.00
2017-11-13T04:42:08.250Z,0.00
2017-11-13T04:42:08.865Z,0.00
2017-11-13T04:42:09.448Z,0.00
2017-11-13T04:42:10.048Z,0.00
2017-11-13T04:42:10.648Z,0.00
2017-11-13T04:42:11.247Z,0.00
2017-11-13T04:42:11.846Z,0.00
2017-11-13T04:42:12.446Z,0.00
2017-11-13T04:43:06.470Z,0.00
2017-11-13T04:43:07.045Z,0.00
2017-11-13T04:43:07.643Z,0.00
2017-11-13T04:43:08.244Z,0.00
2017-11-13T04:43:08.842Z,0.00
2017-11-13T04:43:09.441Z,0.00
2017-11-13T04:43:10.042Z,0.00
2017-11-13T04:43:10.644Z,0.00
2017-11-13T04:44:04.127Z,0.00
2017-11-13T04:44:04.696Z,0.00
2017-11-13T04:44:05.294Z,0.00
2017-11-13T04:44:05.894Z,0.00
2017-11-13T04:44:06.497Z,0.00
2017-11-13T04:44:07.093Z,0.00
2017-11-13T04:44:07.692Z,0.00
2017-11-13T04:44:08.295Z,0.00
2017-11-13T04:45:03.306Z,0.00
2017-11-13T04:45:03.881Z,0.00
2017-11-13T04:45:04.481Z,0.00
2017-11-13T04:45:05.081Z,0.00
2017-11-13T04:45:05.681Z,0.00
2017-11-13T04:45:06.279Z,0.00
2017-11-13T04:45:06.880Z,0.00
2017-11-13T04:46:03.416Z,0.00
2017-11-13T04:46:03.996Z,0.00
2017-11-13T04:46:04.589Z,0.00
2017-11-13T04:46:58.612Z,0.00
2017-11-13T04:46:59.186Z,0.00
2017-11-13T04:46:59.785Z,0.00
2017-11-13T04:47:00.391Z,0.00
2017-11-13T04:47:00.983Z,0.00
2017-11-13T04:47:01.584Z,0.00
2017-11-13T04:47:02.183Z,0.00
2017-11-13T05:04:18.597Z,0.00
2017-11-13T05:04:19.165Z,0.00
2017-11-13T05:04:19.763Z,0.00
2017-11-13T05:04:20.362Z,0.00
2017-11-13T05:04:20.963Z,0.00
2017-11-13T05:04:21.562Z,0.00
2017-11-13T05:05:29.048Z,0.00
2017-11-13T05:05:29.615Z,0.00
2017-11-13T05:08:01.930Z,0.00
2017-11-13T05:08:02.495Z,0.00
2017-11-13T05:08:03.093Z,0.00
2017-11-13T05:08:03.695Z,0.00
2017-11-13T05:08:04.292Z,0.00
2017-11-13T05:08:04.892Z,0.00
2017-11-13T05:08:05.491Z,0.00
2017-11-13T05:08:06.092Z,0.00
2017-11-13T05:08:06.694Z,0.00
2017-11-13T05:08:07.292Z,0.00
2017-11-13T05:08:07.893Z,0.00
2017-11-13T05:08:08.493Z,0.00
2017-11-13T05:09:08.589Z,0.00
2017-11-13T05:09:09.164Z,0.00
2017-11-13T05:09:09.764Z,0.00
2017-11-13T05:09:10.363Z,0.00
2017-11-13T05:09:10.962Z,0.00
2017-11-13T05:09:11.561Z,0.00
2017-11-13T05:09:12.161Z,0.00
2017-11-13T05:09:12.761Z,0.00
2017-11-13T05:09:13.359Z,0.00
2017-11-13T05:09:13.961Z,0.00
2017-11-13T05:09:14.560Z,0.00
2017-11-13T05:09:15.160Z,0.00
2017-11-13T05:09:15.763Z,0.00
2017-11-13T05:09:16.359Z,0.00
2017-11-13T05:09:16.964Z,0.00
2017-11-13T05:09:17.559Z,0.00
2017-11-13T05:10:31.023Z,0.00
2017-11-13T05:10:31.644Z,0.00
2017-11-13T05:10:32.196Z,0.00
2017-11-13T05:10:32.796Z,0.00
2017-11-13T05:10:33.400Z,0.00
2017-11-13T05:10:33.996Z,0.00
2017-11-13T05:10:34.596Z,0.00
2017-11-13T05:10:35.196Z,0.00
2017-11-13T05:11:28.714Z,0.00
2017-11-13T05:11:29.250Z,0.00
2017-11-13T05:11:29.853Z,0.00
2017-11-13T05:11:30.448Z,0.00
2017-11-13T05:11:31.048Z,0.00
2017-11-13T05:11:31.658Z,0.00
2017-11-13T05:11:32.247Z,0.00
2017-11-13T05:11:32.847Z,0.00
2017-11-13T05:12:26.838Z,0.00
2017-11-13T05:12:27.412Z,0.00
2017-11-13T05:12:28.011Z,0.00
2017-11-13T05:12:28.610Z,0.00
2017-11-13T05:12:29.210Z,0.00
2017-11-13T05:12:29.812Z,0.00
2017-11-13T05:12:30.409Z,0.00
2017-11-13T05:13:24.897Z,0.00
2017-11-13T05:13:25.473Z,0.00
2017-11-13T05:13:26.073Z,0.00
2017-11-13T05:13:26.672Z,0.00
2017-11-13T05:13:27.286Z,0.00
2017-11-13T05:13:27.873Z,0.00
2017-11-13T05:13:28.472Z,0.00
2017-11-13T05:13:29.072Z,0.00
2017-11-13T05:14:24.093Z,0.00
2017-11-13T05:14:24.661Z,0.00
2017-11-13T05:14:25.261Z,0.00
2017-11-13T05:14:25.861Z,0.00
2017-11-13T05:14:26.462Z,0.00
2017-11-13T05:14:27.061Z,0.00
2017-11-13T05:18:31.080Z,0.00
2017-11-13T05:18:31.654Z,0.00
2017-11-13T05:19:28.225Z,0.00
2017-11-13T05:19:28.792Z,0.00
2017-11-13T05:19:29.392Z,0.00
2017-11-13T05:20:36.008Z,8.00
2017-11-13T05:20:36.583Z,8.00
2017-11-13T05:20:37.184Z,8.00
2017-11-13T05:22:10.216Z,8.00
2017-11-13T05:22:10.793Z,8.00
2017-11-13T05:22:11.390Z,8.00
2017-11-13T05:22:11.990Z,8.00
2017-11-13T05:22:12.590Z,8.00
2017-11-13T05:22:13.189Z,8.00
2017-11-13T05:22:13.807Z,8.00
2017-11-13T05:22:14.391Z,8.00
2017-11-13T05:22:14.996Z,8.00
2017-11-13T05:24:17.296Z,0.00
2017-11-13T05:24:17.867Z,0.00
2017-11-13T05:24:18.466Z,0.00
2017-11-13T05:24:19.073Z,0.00
2017-11-13T05:24:19.667Z,0.00
2017-11-13T05:24:20.266Z,0.00
2017-11-13T05:24:20.865Z,0.00
2017-11-13T05:24:21.470Z,0.00
2017-11-13T05:24:22.075Z,0.00
2017-11-13T05:24:22.666Z,0.00
2017-11-13T05:24:23.265Z,0.00
2017-11-13T05:24:23.864Z,0.00
2017-11-13T05:26:07.992Z,0.00
2017-11-13T05:26:08.566Z,0.00
2017-11-13T05:26:09.165Z,0.00
2017-11-13T05:26:09.766Z,0.00
2017-11-13T05:26:10.370Z,0.00
2017-11-13T05:26:10.964Z,0.00
2017-11-13T05:26:11.565Z,0.00
2017-11-13T05:26:12.171Z,0.00
2017-11-13T05:27:05.643Z,0.00
2017-11-13T05:27:06.218Z,0.00
2017-11-13T05:27:06.816Z,0.00
2017-11-13T05:27:07.419Z,0.00
2017-11-13T05:27:08.017Z,0.00
2017-11-13T05:27:08.629Z,0.00
2017-11-13T05:27:09.216Z,0.00
2017-11-13T05:27:09.818Z,0.00
2017-11-13T05:28:38.931Z,0.00
2017-11-13T05:28:39.502Z,0.00
2017-11-13T05:28:40.113Z,0.00
2017-11-13T05:28:40.702Z,0.00
2017-11-13T05:28:41.302Z,0.00
2017-11-13T05:28:41.903Z,0.00
2017-11-13T05:28:42.502Z,0.00
2017-11-13T05:28:43.104Z,0.00
2017-11-13T05:28:43.702Z,0.00
2017-11-13T05:28:44.302Z,0.00
2017-11-13T05:28:44.902Z,0.00
2017-11-13T05:28:45.501Z,0.00
2017-11-13T05:28:46.101Z,0.00
2017-11-13T05:28:46.701Z,0.00
2017-11-13T05:28:47.301Z,0.00
2017-11-13T06:04:45.320Z,0.00
2017-11-13T06:04:45.894Z,0.00
2017-11-13T06:04:46.491Z,0.00
2017-11-13T06:04:47.090Z,0.00
2017-11-13T06:04:47.689Z,0.00
2017-11-13T06:04:48.289Z,0.00
2017-11-13T06:04:48.897Z,0.00
2017-11-13T06:05:42.369Z,0.00
2017-11-13T06:05:42.944Z,0.00
2017-11-13T06:05:43.532Z,0.00
2017-11-13T06:05:44.129Z,0.00
2017-11-13T06:05:44.729Z,0.00
2017-11-13T06:05:45.328Z,0.00
2017-11-13T06:05:45.952Z,0.00
2017-11-13T06:05:46.528Z,0.00
2017-11-13T06:06:40.518Z,0.00
2017-11-13T06:06:41.094Z,0.00
2017-11-13T06:06:41.691Z,0.00
2017-11-13T06:06:42.297Z,0.00
2017-11-13T06:06:42.890Z,0.00
2017-11-13T06:06:43.493Z,0.00
2017-11-13T06:06:44.091Z,0.00
2017-11-13T06:07:39.092Z,0.00
2017-11-13T06:07:39.669Z,0.00
2017-11-13T06:07:40.266Z,0.00
2017-11-13T06:07:40.865Z,0.00
2017-11-13T06:07:41.468Z,0.00
2017-11-13T06:07:42.066Z,0.00
2017-11-13T06:08:37.565Z,4.00
2017-11-13T06:08:38.138Z,4.00
2017-11-13T06:08:38.737Z,4.00
2017-11-13T06:08:39.337Z,4.00
2017-11-13T06:08:39.936Z,4.00
2017-11-13T06:08:40.537Z,4.00
2017-11-13T06:08:41.137Z,4.00
2017-11-13T06:09:34.705Z,4.00
2017-11-13T06:09:35.278Z,4.00
2017-11-13T06:09:35.878Z,4.00
2017-11-13T06:09:36.477Z,4.00
2017-11-13T06:09:37.078Z,4.00
2017-11-13T06:09:37.678Z,4.00
2017-11-13T06:09:38.276Z,4.00
2017-11-13T06:09:38.877Z,4.00
2017-11-13T06:10:32.881Z,4.00
2017-11-13T06:10:33.444Z,4.00
2017-11-13T06:10:34.045Z,4.00
2017-11-13T06:10:34.639Z,4.00
2017-11-13T06:10:35.240Z,4.00
2017-11-13T06:10:35.840Z,4.00
2017-11-13T06:10:36.439Z,4.00
2017-11-13T06:11:29.904Z,4.00
2017-11-13T06:11:30.478Z,4.00
2017-11-13T06:11:31.077Z,4.00
2017-11-13T06:11:31.677Z,4.00
2017-11-13T06:11:32.279Z,4.00
2017-11-13T06:11:32.877Z,4.00
2017-11-13T06:11:33.477Z,4.00
2017-11-13T06:11:34.078Z,4.00
2017-11-13T06:17:48.780Z,4.00
2017-11-13T07:07:36.832Z,568.00
2017-11-13T07:07:37.332Z,572.00
2017-11-13T07:07:37.932Z,572.00
2017-11-13T07:07:38.531Z,572.00
2017-11-13T07:07:39.131Z,572.00
2017-11-13T07:07:39.731Z,572.00
2017-11-13T07:07:40.329Z,572.00
2017-11-13T07:07:40.931Z,576.00
2017-11-13T07:07:41.531Z,576.00
2017-11-13T07:07:42.131Z,576.00
2017-11-13T07:07:42.730Z,576.00
2017-11-13T07:07:43.330Z,576.00
2017-11-13T07:07:43.930Z,576.00
2017-11-13T07:07:44.529Z,576.00
2017-11-13T07:08:38.078Z,596.00
2017-11-13T07:08:38.654Z,596.00
2017-11-13T07:08:39.251Z,596.00
2017-11-13T07:08:39.851Z,592.00
2017-11-13T07:08:40.450Z,596.00
2017-11-13T07:08:41.051Z,596.00
2017-11-13T07:08:41.651Z,596.00
2017-11-13T07:08:42.249Z,596.00
2017-11-13T07:09:36.812Z,616.00
2017-11-13T07:09:37.326Z,616.00
2017-11-13T07:09:37.925Z,616.00
2017-11-13T07:09:38.526Z,616.00
2017-11-13T07:09:39.125Z,616.00
2017-11-13T07:09:39.726Z,616.00
2017-11-13T07:09:40.326Z,616.00
2017-11-13T07:09:40.926Z,616.00
2017-11-13T07:10:34.410Z,632.00
2017-11-13T07:10:34.980Z,632.00
2017-11-13T07:10:35.578Z,632.00
2017-11-13T07:10:36.178Z,636.00
2017-11-13T07:10:36.779Z,636.00
2017-11-13T07:10:37.378Z,636.00
2017-11-13T07:10:37.983Z,636.00
2017-11-13T07:10:38.577Z,636.00
2017-11-13T07:11:50.188Z,660.00
2017-11-13T07:11:50.757Z,660.00
2017-11-13T07:11:51.354Z,660.00
2017-11-13T07:11:51.956Z,660.00
2017-11-13T07:11:52.554Z,660.00
2017-11-13T07:11:53.153Z,660.00
2017-11-13T07:11:53.753Z,664.00
2017-11-13T07:11:54.353Z,664.00
2017-11-13T07:11:54.961Z,664.00
2017-11-13T07:11:55.553Z,664.00
2017-11-13T07:11:56.154Z,664.00
2017-11-13T07:13:03.719Z,652.00
2017-11-13T07:13:04.289Z,652.00
2017-11-13T07:13:04.880Z,652.00
2017-11-13T07:14:01.356Z,672.00
2017-11-13T07:14:01.933Z,672.00
2017-11-13T07:14:02.531Z,672.00
2017-11-13T07:14:59.009Z,692.00
2017-11-13T07:14:59.585Z,692.00
2017-11-13T07:15:00.182Z,692.00
2017-11-13T07:15:55.227Z,708.00
2017-11-13T07:15:55.802Z,708.00
2017-11-13T07:15:56.401Z,708.00
2017-11-13T07:15:57.001Z,708.00
2017-11-13T07:15:57.599Z,708.00
2017-11-13T07:15:58.200Z,708.00
2017-11-13T07:16:53.193Z,724.00
2017-11-13T07:16:53.760Z,724.00
2017-11-13T07:16:54.359Z,724.00
2017-11-13T07:16:54.960Z,724.00
2017-11-13T07:16:55.559Z,724.00
2017-11-13T07:16:56.158Z,724.00
2017-11-13T07:16:56.759Z,724.00
2017-11-13T07:16:57.357Z,724.00
2017-11-13T07:17:51.862Z,744.00
2017-11-13T07:17:52.438Z,744.00
2017-11-13T07:17:53.036Z,744.00
2017-11-13T07:17:53.635Z,740.00
2017-11-13T07:17:54.234Z,740.00
2017-11-13T07:17:54.835Z,740.00
2017-11-13T07:17:55.435Z,740.00
2017-11-13T07:17:56.035Z,744.00
2017-11-13T07:18:50.536Z,760.00
2017-11-13T07:18:51.114Z,760.00
2017-11-13T07:18:51.715Z,760.00
2017-11-13T07:18:52.310Z,760.00
2017-11-13T07:18:52.909Z,760.00
2017-11-13T07:18:53.510Z,760.00
2017-11-13T07:18:54.130Z,760.00
2017-11-13T07:18:54.709Z,760.00
2017-11-13T07:20:07.237Z,780.00
2017-11-13T07:20:07.810Z,780.00
2017-11-13T07:20:08.414Z,780.00
2017-11-13T07:20:09.013Z,784.00
2017-11-13T07:20:09.608Z,784.00
2017-11-13T07:20:10.209Z,784.00
2017-11-13T07:20:10.813Z,784.00
2017-11-13T07:20:11.408Z,784.00
2017-11-13T07:20:12.008Z,784.00
2017-11-13T07:20:12.608Z,784.00
2017-11-13T07:20:13.209Z,784.00
2017-11-13T07:21:26.699Z,804.00
2017-11-13T07:21:27.273Z,804.00
2017-11-13T07:21:27.873Z,804.00
2017-11-13T07:21:28.472Z,804.00
2017-11-13T07:21:29.071Z,804.00
2017-11-13T07:21:29.672Z,804.00
2017-11-13T07:21:30.271Z,804.00
2017-11-13T07:21:30.870Z,804.00
2017-11-13T07:23:11.462Z,832.00
2017-11-13T07:23:12.030Z,836.00
2017-11-13T07:23:12.628Z,836.00
2017-11-13T07:23:13.229Z,836.00
2017-11-13T07:23:13.828Z,836.00
2017-11-13T07:23:14.428Z,836.00
2017-11-13T07:23:15.029Z,836.00
2017-11-13T07:23:15.628Z,836.00
2017-11-13T07:23:16.228Z,836.00
2017-11-13T07:23:16.827Z,832.00
2017-11-13T07:23:17.427Z,832.00
2017-11-13T07:23:18.027Z,836.00
2017-11-13T07:23:18.626Z,832.00
2017-11-13T07:24:12.185Z,852.00
2017-11-13T07:24:12.768Z,848.00
2017-11-13T07:24:13.353Z,848.00
2017-11-13T07:24:13.955Z,848.00
2017-11-13T07:24:14.555Z,848.00
2017-11-13T07:24:15.153Z,848.00
2017-11-13T07:24:15.754Z,852.00
2017-11-13T07:24:16.353Z,852.00
2017-11-13T07:25:10.340Z,864.00
2017-11-13T07:25:10.916Z,864.00
2017-11-13T07:25:11.515Z,864.00
2017-11-13T07:25:12.115Z,864.00
2017-11-13T07:25:12.715Z,868.00
2017-11-13T07:25:13.314Z,868.00
2017-11-13T07:25:13.918Z,868.00
2017-11-13T07:26:08.403Z,880.00
2017-11-13T07:26:08.979Z,880.00
2017-11-13T07:26:09.578Z,880.00
2017-11-13T07:26:10.177Z,880.00
2017-11-13T07:26:10.776Z,880.00
2017-11-13T07:26:11.377Z,884.00
2017-11-13T07:26:11.980Z,884.00
2017-11-13T07:26:12.576Z,884.00
2017-11-13T07:27:11.076Z,900.00
2017-11-13T07:27:11.647Z,900.00
2017-11-13T07:27:12.247Z,900.00
2017-11-13T07:27:12.848Z,900.00
2017-11-13T07:27:13.447Z,900.00
2017-11-13T07:27:14.046Z,900.00
2017-11-13T07:27:14.645Z,900.00
2017-11-13T07:27:15.254Z,900.00
2017-11-13T07:27:15.846Z,896.00
2017-11-13T07:27:16.446Z,896.00
2017-11-13T07:27:17.045Z,896.00
2017-11-13T07:27:17.645Z,896.00
2017-11-13T07:27:18.247Z,896.00
2017-11-13T07:27:18.845Z,900.00
2017-11-13T07:27:19.446Z,900.00
2017-11-13T07:27:20.044Z,900.00
2017-11-13T07:27:20.642Z,900.00
2017-11-13T08:07:10.729Z,1404.00
2017-11-13T08:07:11.302Z,1400.00
2017-11-13T08:07:11.901Z,1400.00
2017-11-13T08:07:12.499Z,1404.00
2017-11-13T08:07:13.100Z,1400.00
2017-11-13T08:07:13.703Z,1404.00
2017-11-13T08:07:14.299Z,1404.00